Time;durP1;ratioP1;P1;durP2;ratioP2;P2;SDS_P1;SDS_P2;PMS_P1;PMS_P2;Temp;Humidity;BMP_temperature;BMP_pressure;BME280_temperature;BME280_humidity;BME280_pressure;Samples;Min_cycle;Max_cycle;Signal;HPM_P1;HPM_P2
2023/12/07 00:01:06;;;;;;;5.07;2.33;;;;;;;;;;5053143;28;20064;-66
2023/12/07 00:03:32;;;;;;;8.45;2.33;;;;;;;;;;5051824;28;20462;-66
2023/12/07 00:05:57;;;;;;;7.45;3.55;;;;;;;;;;5053084;28;20055;-66
2023/12/07 00:08:23;;;;;;;8.95;2.22;;;;;;;;;;5053190;28;20032;-66
2023/12/07 00:10:48;;;;;;;4.15;1.98;;;;;;;;;;5053103;28;20033;-66
2023/12/07 00:13:13;;;;;;;7.57;2.97;;;;;;;;;;5052636;28;20055;-67
2023/12/07 00:15:39;;;;;;;2.85;1.75;;;;;;;;;;5053196;28;20068;-66
2023/12/07 00:18:04;;;;;;;8.80;2.58;;;;;;;;;;5051561;28;20554;-66
2023/12/07 00:20:30;;;;;;;9.55;1.52;;;;;;;;;;5052875;28;20056;-66
2023/12/07 00:22:55;;;;;;;4.20;2.22;;;;;;;;;;5052990;28;20044;-66
2023/12/07 00:25:21;;;;;;;7.32;2.28;;;;;;;;;;5052675;28;20045;-65
2023/12/07 00:27:47;;;;;;;5.32;1.75;;;;;;;;;;5052750;28;20037;-67
2023/12/07 00:30:12;;;;;;;13.68;2.70;;;;;;;;;;5052682;28;20131;-66
2023/12/07 00:32:38;;;;;;;5.28;2.08;;;;;;;;;;5052512;28;20188;-66
2023/12/07 00:35:03;;;;;;;6.07;2.55;;;;;;;;;;5052334;28;20102;-66
2023/12/07 00:37:29;;;;;;;6.28;2.25;;;;;;;;;;5052678;28;20036;-66
2023/12/07 00:39:54;;;;;;;5.90;2.17;;;;;;;;;;5052377;28;20612;-67
2023/12/07 00:42:19;;;;;;;7.88;2.15;;;;;;;;;;5052181;28;20040;-66
2023/12/07 00:44:45;;;;;;;6.05;1.75;;;;;;;;;;5051972;28;20112;-66
2023/12/07 00:47:10;;;;;;;5.57;1.52;;;;;;;;;;5052111;28;20045;-68
2023/12/07 00:49:42;;;;;;;8.60;2.42;;;;;;;;;;5052065;28;20068;-65
2023/12/07 00:52:08;;;;;;;5.50;1.70;;;;;;;;;;5046468;28;20029;-66
2023/12/07 00:54:33;;;;;;;3.85;2.00;;;;;;;;;;5050918;28;20483;-66
2023/12/07 00:56:59;;;;;;;5.88;1.63;;;;;;;;;;5050974;28;20045;-66
2023/12/07 00:59:24;;;;;;;6.25;1.60;;;;;;;;;;5051554;28;20071;-66
2023/12/07 01:01:50;;;;;;;3.78;1.85;;;;;;;;;;5051375;28;20043;-67
2023/12/07 01:04:16;;;;;;;7.18;1.60;;;;;;;;;;5051880;28;20040;-67
2023/12/07 01:06:41;;;;;;;4.25;1.40;;;;;;;;;;5052094;28;20024;-66
2023/12/07 01:09:06;;;;;;;3.78;1.48;;;;;;;;;;5050533;28;20041;-67
2023/12/07 01:11:32;;;;;;;5.63;1.70;;;;;;;;;;5051957;28;20480;-66
2023/12/07 01:13:57;;;;;;;2.65;1.20;;;;;;;;;;5052011;28;20098;-66
2023/12/07 01:16:24;;;;;;;11.98;3.17;;;;;;;;;;5051567;28;20048;-66
2023/12/07 01:18:49;;;;;;;4.40;1.60;;;;;;;;;;5051713;28;20036;-66
2023/12/07 01:21:15;;;;;;;6.28;2.08;;;;;;;;;;5051928;28;20392;-66
2023/12/07 01:23:40;;;;;;;2.53;1.10;;;;;;;;;;5051990;28;20516;-67
2023/12/07 01:26:06;;;;;;;3.78;1.52;;;;;;;;;;5051780;28;20519;-67
2023/12/07 01:28:32;;;;;;;2.85;1.42;;;;;;;;;;5051214;28;20035;-65
2023/12/07 01:30:57;;;;;;;4.63;1.40;;;;;;;;;;5050002;28;20439;-66
2023/12/07 01:33:23;;;;;;;6.20;1.60;;;;;;;;;;5051641;28;20037;-66
2023/12/07 01:35:48;;;;;;;4.32;1.40;;;;;;;;;;5050908;28;20358;-67
2023/12/07 01:38:13;;;;;;;3.30;1.55;;;;;;;;;;5050713;28;20037;-66
2023/12/07 01:40:39;;;;;;;7.50;2.35;;;;;;;;;;5049831;28;20123;-66
2023/12/07 01:43:04;;;;;;;4.60;1.88;;;;;;;;;;5050945;28;20653;-66
2023/12/07 01:45:29;;;;;;;6.57;2.65;;;;;;;;;;5050609;28;20037;-67
2023/12/07 01:47:56;;;;;;;8.43;2.58;;;;;;;;;;5051124;28;20094;-66
2023/12/07 01:50:23;;;;;;;3.42;1.40;;;;;;;;;;5049077;28;20041;-67
2023/12/07 01:52:50;;;;;;;3.03;1.65;;;;;;;;;;5049459;28;20040;-66
2023/12/07 01:55:15;;;;;;;3.95;1.52;;;;;;;;;;5049903;28;20040;-67
2023/12/07 01:57:42;;;;;;;5.00;2.00;;;;;;;;;;5049972;28;20033;-67
2023/12/07 02:00:45;;;;;;;8.82;2.17;;;;;;;;;;5042518;28;20040;-66
2023/12/07 02:03:11;;;;;;;10.32;2.30;;;;;;;;;;5049646;28;20040;-66
2023/12/07 02:05:37;;;;;;;3.50;1.60;;;;;;;;;;5050578;28;20067;-66
2023/12/07 02:08:03;;;;;;;3.53;1.88;;;;;;;;;;5053420;28;20120;-66
2023/12/07 02:10:28;;;;;;;6.10;2.05;;;;;;;;;;5055157;28;20025;-67
2023/12/07 02:12:54;;;;;;;3.03;1.30;;;;;;;;;;5049696;28;20049;-66
2023/12/07 02:15:19;;;;;;;2.75;1.58;;;;;;;;;;5050632;28;20115;-67
2023/12/07 02:18:10;;;;;;;7.00;2.00;;;;;;;;;;5049506;28;20083;-67
2023/12/07 02:20:51;;;;;;;6.60;1.75;;;;;;;;;;5047142;28;20044;-66
2023/12/07 02:23:17;;;;;;;4.20;1.48;;;;;;;;;;5040882;28;20053;-66
2023/12/07 02:25:53;;;;;;;8.30;2.10;;;;;;;;;;5050353;28;20032;-67
2023/12/07 02:28:18;;;;;;;2.95;1.45;;;;;;;;;;5049362;28;20029;-67
2023/12/07 02:30:44;;;;;;;6.68;2.03;;;;;;;;;;5050213;28;20075;-66
2023/12/07 02:33:10;;;;;;;4.20;2.42;;;;;;;;;;5049199;28;20033;-66
2023/12/07 02:35:37;;;;;;;5.20;1.65;;;;;;;;;;5048411;28;20630;-66
2023/12/07 02:38:03;;;;;;;3.97;1.52;;;;;;;;;;5048861;28;20126;-66
2023/12/07 02:40:28;;;;;;;8.55;2.42;;;;;;;;;;5050440;28;20423;-66
2023/12/07 02:42:54;;;;;;;3.58;2.40;;;;;;;;;;5050280;28;20037;-67
2023/12/07 02:45:20;;;;;;;4.75;1.05;;;;;;;;;;5049085;28;20446;-66
2023/12/07 02:47:45;;;;;;;5.18;1.50;;;;;;;;;;5050456;28;20029;-66
2023/12/07 02:50:12;;;;;;;4.63;1.60;;;;;;;;;;5050156;28;20460;-66
2023/12/07 02:52:38;;;;;;;5.63;1.58;;;;;;;;;;5050275;28;20048;-66
2023/12/07 02:55:03;;;;;;;4.03;1.58;;;;;;;;;;5049360;28;20032;-66
2023/12/07 02:57:29;;;;;;;5.03;1.63;;;;;;;;;;5050033;28;20634;-66
2023/12/07 02:59:55;;;;;;;3.33;1.52;;;;;;;;;;5049981;28;20484;-66
2023/12/07 03:02:20;;;;;;;5.45;1.55;;;;;;;;;;5049869;28;20029;-66
2023/12/07 03:04:46;;;;;;;3.33;1.80;;;;;;;;;;5048762;28;20029;-66
2023/12/07 03:07:11;;;;;;;7.38;2.13;;;;;;;;;;5049509;28;20469;-67
2023/12/07 03:09:36;;;;;;;4.75;2.00;;;;;;;;;;5050285;28;20451;-66
2023/12/07 03:12:02;;;;;;;5.22;1.77;;;;;;;;;;5049197;28;20029;-67
2023/12/07 03:14:27;;;;;;;5.03;2.00;;;;;;;;;;5049675;28;20076;-66
2023/12/07 03:16:52;;;;;;;4.47;1.90;;;;;;;;;;5049209;28;20029;-66
2023/12/07 03:19:18;;;;;;;8.45;1.90;;;;;;;;;;5049794;28;20074;-67
2023/12/07 03:21:43;;;;;;;3.80;1.80;;;;;;;;;;5051557;28;20036;-67
2023/12/07 03:24:09;;;;;;;5.13;1.48;;;;;;;;;;5054345;28;20388;-65
2023/12/07 03:26:35;;;;;;;3.13;2.10;;;;;;;;;;5052599;28;20481;-66
2023/12/07 03:29:00;;;;;;;3.97;1.45;;;;;;;;;;5053962;28;20033;-66
2023/12/07 03:31:25;;;;;;;4.50;1.83;;;;;;;;;;5053807;28;20047;-66
2023/12/07 03:33:51;;;;;;;2.50;1.50;;;;;;;;;;5053812;28;20039;-66
2023/12/07 03:36:16;;;;;;;7.13;2.03;;;;;;;;;;5053894;28;20596;-66
2023/12/07 03:38:42;;;;;;;6.07;1.40;;;;;;;;;;5053684;28;20025;-66
2023/12/07 03:41:08;;;;;;;11.68;2.45;;;;;;;;;;5052364;28;20044;-67
2023/12/07 03:43:33;;;;;;;4.10;1.60;;;;;;;;;;5053443;28;20037;-66
2023/12/07 03:45:58;;;;;;;5.88;1.63;;;;;;;;;;5053134;28;20557;-66
2023/12/07 03:48:24;;;;;;;3.70;1.83;;;;;;;;;;5053403;28;20033;-67
2023/12/07 03:50:49;;;;;;;3.42;1.83;;;;;;;;;;5053209;28;20041;-66
2023/12/07 03:53:14;;;;;;;3.67;1.90;;;;;;;;;;5053334;28;20032;-66
2023/12/07 03:55:40;;;;;;;4.97;2.17;;;;;;;;;;5052112;28;20365;-66
2023/12/07 03:58:05;;;;;;;2.60;1.35;;;;;;;;;;5053304;28;20116;-66
2023/12/07 04:00:32;;;;;;;5.07;2.08;;;;;;;;;;5053557;28;20043;-66
2023/12/07 04:02:57;;;;;;;3.42;1.40;;;;;;;;;;5053077;28;20021;-67
2023/12/07 04:05:23;;;;;;;5.80;1.98;;;;;;;;;;5053158;28;20059;-66
2023/12/07 04:07:48;;;;;;;5.50;2.13;;;;;;;;;;5052091;28;20472;-66
2023/12/07 04:10:13;;;;;;;5.25;1.92;;;;;;;;;;5053038;28;20035;-66
2023/12/07 04:12:39;;;;;;;1.60;1.17;;;;;;;;;;5052803;28;20059;-67
2023/12/07 04:15:05;;;;;;;2.95;1.60;;;;;;;;;;5052896;28;20040;-66
2023/12/07 04:17:30;;;;;;;4.15;1.88;;;;;;;;;;5052243;28;20029;-67
2023/12/07 04:19:55;;;;;;;6.38;2.50;;;;;;;;;;5051458;28;20048;-66
2023/12/07 04:22:21;;;;;;;5.15;2.10;;;;;;;;;;5053120;28;20035;-66
2023/12/07 04:24:46;;;;;;;8.23;2.65;;;;;;;;;;5052828;28;20102;-66
2023/12/07 04:27:12;;;;;;;6.57;2.38;;;;;;;;;;5052798;28;20115;-67
2023/12/07 04:29:37;;;;;;;4.28;1.85;;;;;;;;;;5052817;28;20105;-66
2023/12/07 04:32:02;;;;;;;3.60;1.60;;;;;;;;;;5052415;28;20507;-66
2023/12/07 04:34:28;;;;;;;3.40;2.13;;;;;;;;;;5051618;28;20048;-67
2023/12/07 04:36:53;;;;;;;5.32;2.08;;;;;;;;;;5053058;28;20025;-67
2023/12/07 04:39:18;;;;;;;3.60;2.30;;;;;;;;;;5052456;28;20457;-67
2023/12/07 04:41:44;;;;;;;5.45;2.85;;;;;;;;;;5052787;28;20477;-66
2023/12/07 04:44:09;;;;;;;6.55;1.70;;;;;;;;;;5051206;28;20037;-67
2023/12/07 04:46:35;;;;;;;3.22;1.77;;;;;;;;;;5052190;28;20032;-66
2023/12/07 04:49:00;;;;;;;12.85;2.13;;;;;;;;;;5052396;28;20087;-66
2023/12/07 04:51:26;;;;;;;3.97;1.90;;;;;;;;;;5050859;28;20025;-66
2023/12/07 04:53:51;;;;;;;2.15;1.50;;;;;;;;;;5050722;28;20057;-67
2023/12/07 04:56:16;;;;;;;3.78;2.08;;;;;;;;;;5052364;28;20069;-66
2023/12/07 04:58:42;;;;;;;2.28;1.23;;;;;;;;;;5050921;28;20029;-66
2023/12/07 05:01:07;;;;;;;4.75;1.65;;;;;;;;;;5052046;28;20037;-66
2023/12/07 05:03:32;;;;;;;2.50;1.35;;;;;;;;;;5052373;28;20045;-66
2023/12/07 05:05:58;;;;;;;5.20;1.42;;;;;;;;;;5052159;28;20036;-67
2023/12/07 05:08:23;;;;;;;2.85;1.60;;;;;;;;;;5052041;28;20033;-66
2023/12/07 05:10:48;;;;;;;2.20;1.20;;;;;;;;;;5052005;28;20044;-66
2023/12/07 05:13:14;;;;;;;2.50;1.38;;;;;;;;;;5051856;28;20520;-67
2023/12/07 05:15:39;;;;;;;3.60;1.13;;;;;;;;;;5051943;28;20037;-67
2023/12/07 05:18:05;;;;;;;4.32;1.15;;;;;;;;;;5050798;28;20036;-66
2023/12/07 05:20:30;;;;;;;1.65;0.90;;;;;;;;;;5050864;28;20107;-66
2023/12/07 05:22:56;;;;;;;1.85;0.88;;;;;;;;;;5051236;28;20029;-67
2023/12/07 05:25:21;;;;;;;1.35;0.80;;;;;;;;;;5051207;28;20499;-67
2023/12/07 05:27:46;;;;;;;3.00;0.88;;;;;;;;;;5050964;28;20040;-67
2023/12/07 05:30:12;;;;;;;1.00;0.70;;;;;;;;;;5051413;28;20028;-66
2023/12/07 05:32:38;;;;;;;1.00;0.73;;;;;;;;;;5048762;28;20033;-66
2023/12/07 05:35:04;;;;;;;1.20;0.60;;;;;;;;;;5051233;28;20539;-66
2023/12/07 05:37:29;;;;;;;0.75;0.60;;;;;;;;;;5051200;28;20039;-66
2023/12/07 05:39:54;;;;;;;1.17;0.70;;;;;;;;;;5051472;28;20075;-66
2023/12/07 05:42:20;;;;;;;1.52;0.80;;;;;;;;;;5051587;28;20060;-66
2023/12/07 05:44:45;;;;;;;2.60;0.52;;;;;;;;;;5057998;28;20024;-67
2023/12/07 05:47:11;;;;;;;1.25;0.57;;;;;;;;;;5051377;28;20041;-67
2023/12/07 05:49:36;;;;;;;1.15;0.70;;;;;;;;;;5051243;28;20037;-66
2023/12/07 05:52:02;;;;;;;1.80;0.63;;;;;;;;;;5051218;28;20029;-66
2023/12/07 05:54:28;;;;;;;0.55;0.40;;;;;;;;;;5050787;28;20487;-67
2023/12/07 05:56:53;;;;;;;2.08;0.60;;;;;;;;;;5050948;28;20029;-66
2023/12/07 05:59:18;;;;;;;1.30;0.50;;;;;;;;;;5050856;28;20033;-66
2023/12/07 06:01:44;;;;;;;1.40;0.80;;;;;;;;;;5051271;28;20499;-66
2023/12/07 06:04:10;;;;;;;2.38;1.10;;;;;;;;;;5050741;28;20376;-66
2023/12/07 06:06:35;;;;;;;0.88;0.50;;;;;;;;;;5050954;28;20036;-67
2023/12/07 06:09:01;;;;;;;0.73;0.45;;;;;;;;;;5050883;28;20041;-66
2023/12/07 06:11:26;;;;;;;1.08;0.63;;;;;;;;;;5051019;28;20044;-67
2023/12/07 06:13:52;;;;;;;1.15;0.40;;;;;;;;;;5050672;28;20032;-67
2023/12/07 06:16:18;;;;;;;1.90;0.68;;;;;;;;;;5050670;28;20041;-66
2023/12/07 06:18:44;;;;;;;0.63;0.50;;;;;;;;;;5050938;28;20029;-67
2023/12/07 06:21:10;;;;;;;0.50;0.40;;;;;;;;;;5050607;28;20130;-67
2023/12/07 06:23:35;;;;;;;0.28;0.28;;;;;;;;;;5050639;28;20140;-67
2023/12/07 06:26:01;;;;;;;1.17;0.55;;;;;;;;;;5050599;28;20102;-67
2023/12/07 06:28:27;;;;;;;0.60;0.35;;;;;;;;;;5049330;28;20032;-67
2023/12/07 06:30:53;;;;;;;0.68;0.47;;;;;;;;;;5049124;28;20135;-66
2023/12/07 06:33:18;;;;;;;1.15;0.50;;;;;;;;;;5050126;28;20036;-67
2023/12/07 06:35:43;;;;;;;1.33;0.70;;;;;;;;;;5048196;28;20037;-67
2023/12/07 06:38:09;;;;;;;1.92;0.50;;;;;;;;;;5050240;28;20091;-67
2023/12/07 06:40:34;;;;;;;1.63;0.60;;;;;;;;;;5050238;28;20033;-65
2023/12/07 06:42:59;;;;;;;1.10;0.50;;;;;;;;;;5043333;28;20599;-67
2023/12/07 06:45:25;;;;;;;1.85;0.60;;;;;;;;;;5049593;28;20048;-66
2023/12/07 06:47:51;;;;;;;0.50;0.40;;;;;;;;;;5049837;28;20500;-68
2023/12/07 06:50:16;;;;;;;1.00;0.43;;;;;;;;;;5049753;28;20496;-67
2023/12/07 06:52:42;;;;;;;1.05;0.47;;;;;;;;;;5046545;28;20081;-66
2023/12/07 06:55:10;;;;;;;0.70;0.50;;;;;;;;;;5049777;28;20025;-67
2023/12/07 06:57:35;;;;;;;1.10;0.50;;;;;;;;;;5049520;28;20075;-66
2023/12/07 07:00:05;;;;;;;1.33;0.75;;;;;;;;;;5050032;28;20040;-67
2023/12/07 07:02:30;;;;;;;1.08;0.55;;;;;;;;;;5049912;28;20468;-67
2023/12/07 07:04:56;;;;;;;3.50;0.50;;;;;;;;;;5050055;28;20040;-66
2023/12/07 07:07:21;;;;;;;0.85;0.60;;;;;;;;;;5050024;28;20036;-66
2023/12/07 07:09:46;;;;;;;1.33;0.60;;;;;;;;;;5050159;28;20025;-67
2023/12/07 07:12:12;;;;;;;1.17;0.60;;;;;;;;;;5050117;28;20032;-67
2023/12/07 07:14:37;;;;;;;2.45;0.70;;;;;;;;;;5050055;28;20060;-66
2023/12/07 07:17:04;;;;;;;1.88;0.80;;;;;;;;;;5050228;28;20533;-67
2023/12/07 07:19:30;;;;;;;3.20;1.10;;;;;;;;;;5049846;28;20112;-66
2023/12/07 07:21:55;;;;;;;1.77;1.08;;;;;;;;;;5050400;28;20116;-67
2023/12/07 07:24:20;;;;;;;1.38;0.75;;;;;;;;;;5048731;28;20653;-66
2023/12/07 07:26:46;;;;;;;1.38;0.90;;;;;;;;;;5049975;28;20433;-66
2023/12/07 07:29:11;;;;;;;2.15;0.90;;;;;;;;;;5049991;28;20554;-66
2023/12/07 07:31:36;;;;;;;2.13;1.10;;;;;;;;;;5049923;28;20057;-66
2023/12/07 07:34:02;;;;;;;0.60;0.40;;;;;;;;;;5049752;28;20056;-66
2023/12/07 07:36:27;;;;;;;1.27;0.60;;;;;;;;;;5047840;28;20044;-66
2023/12/07 07:38:53;;;;;;;2.05;0.98;;;;;;;;;;5049803;28;20053;-66
2023/12/07 07:41:18;;;;;;;1.67;0.60;;;;;;;;;;5048419;28;20021;-67
2023/12/07 07:43:43;;;;;;;1.98;0.57;;;;;;;;;;5049355;28;20102;-66
2023/12/07 07:46:09;;;;;;;1.38;0.60;;;;;;;;;;5049650;28;20040;-67
2023/12/07 07:48:34;;;;;;;1.30;0.70;;;;;;;;;;5049897;28;20133;-66
2023/12/07 07:50:59;;;;;;;1.30;0.60;;;;;;;;;;5049633;28;20605;-67
2023/12/07 07:53:25;;;;;;;2.08;0.90;;;;;;;;;;5049175;28;20036;-66
2023/12/07 07:55:50;;;;;;;0.82;0.45;;;;;;;;;;5049314;28;20029;-66
2023/12/07 07:58:15;;;;;;;5.30;1.15;;;;;;;;;;5049403;28;20049;-66
2023/12/07 08:00:41;;;;;;;0.80;0.57;;;;;;;;;;5048375;28;20021;-67
2023/12/07 08:03:06;;;;;;;0.88;0.55;;;;;;;;;;5049584;28;20045;-67
2023/12/07 08:05:33;;;;;;;2.03;0.70;;;;;;;;;;5048553;28;20052;-66
2023/12/07 08:07:58;;;;;;;1.80;0.98;;;;;;;;;;5049799;28;20063;-67
2023/12/07 08:10:24;;;;;;;3.00;0.68;;;;;;;;;;5053026;28;20646;-66
2023/12/07 08:12:49;;;;;;;1.35;0.70;;;;;;;;;;5053179;28;20044;-66
2023/12/07 08:15:14;;;;;;;2.17;0.80;;;;;;;;;;5052964;28;20033;-66
2023/12/07 08:17:40;;;;;;;1.63;0.70;;;;;;;;;;5053038;28;20033;-66
2023/12/07 08:20:07;;;;;;;2.58;0.60;;;;;;;;;;5052898;28;20044;-66
2023/12/07 08:22:32;;;;;;;1.85;0.70;;;;;;;;;;5051723;28;20036;-67
2023/12/07 08:24:59;;;;;;;0.98;0.52;;;;;;;;;;5053043;28;20033;-67
2023/12/07 08:27:25;;;;;;;3.30;0.90;;;;;;;;;;5052811;28;20072;-66
2023/12/07 08:29:50;;;;;;;2.60;0.55;;;;;;;;;;5052703;28;20068;-66
2023/12/07 08:32:18;;;;;;;4.75;0.75;;;;;;;;;;5052494;28;20045;-67
2023/12/07 08:34:44;;;;;;;2.13;0.70;;;;;;;;;;5052455;28;20041;-66
2023/12/07 08:37:09;;;;;;;1.05;0.57;;;;;;;;;;5051285;28;20177;-67
2023/12/07 08:39:34;;;;;;;1.05;0.70;;;;;;;;;;5052552;28;20040;-67
2023/12/07 08:42:00;;;;;;;1.45;0.70;;;;;;;;;;5052711;28;20496;-66
2023/12/07 08:44:26;;;;;;;2.67;1.00;;;;;;;;;;5052465;28;20449;-67
2023/12/07 08:46:51;;;;;;;3.42;0.90;;;;;;;;;;5046194;28;20041;-67
2023/12/07 08:49:16;;;;;;;1.77;0.82;;;;;;;;;;5050857;28;20037;-68
2023/12/07 08:51:42;;;;;;;3.08;0.77;;;;;;;;;;5048731;28;20469;-67
2023/12/07 08:54:07;;;;;;;3.53;1.00;;;;;;;;;;5050943;28;20041;-67
2023/12/07 08:56:32;;;;;;;1.05;0.70;;;;;;;;;;5059580;28;20615;-67
2023/12/07 08:58:58;;;;;;;2.78;1.00;;;;;;;;;;5051857;28;20059;-67
2023/12/07 09:01:23;;;;;;;3.45;0.88;;;;;;;;;;5050315;28;20064;-67
2023/12/07 09:03:48;;;;;;;4.75;1.00;;;;;;;;;;5042456;28;20033;-67
2023/12/07 09:06:14;;;;;;;4.35;1.60;;;;;;;;;;5051264;28;20090;-67
2023/12/07 09:08:39;;;;;;;5.90;1.10;;;;;;;;;;5052013;28;20033;-67
2023/12/07 09:11:04;;;;;;;1.70;0.90;;;;;;;;;;5051994;28;20036;-67
2023/12/07 09:13:30;;;;;;;2.28;1.10;;;;;;;;;;5051690;28;20039;-67
2023/12/07 09:15:55;;;;;;;2.35;0.80;;;;;;;;;;5049959;28;20078;-67
2023/12/07 09:18:20;;;;;;;2.10;0.90;;;;;;;;;;5051620;28;20134;-67
2023/12/07 09:20:46;;;;;;;1.35;0.73;;;;;;;;;;5051611;28;20033;-67
2023/12/07 09:23:15;;;;;;;2.03;0.70;;;;;;;;;;5051564;28;20029;-66
2023/12/07 09:25:41;;;;;;;4.22;1.10;;;;;;;;;;5051465;28;20045;-67
2023/12/07 09:28:06;;;;;;;2.08;0.95;;;;;;;;;;5050217;28;20062;-67
2023/12/07 09:30:33;;;;;;;2.17;0.98;;;;;;;;;;5051304;28;20052;-66
2023/12/07 09:32:59;;;;;;;2.60;0.95;;;;;;;;;;5050317;28;20033;-66
2023/12/07 09:35:24;;;;;;;4.25;1.15;;;;;;;;;;5051140;28;20039;-66
2023/12/07 09:37:49;;;;;;;0.95;0.65;;;;;;;;;;5042106;28;20503;-66
2023/12/07 09:40:25;;;;;;;5.70;1.23;;;;;;;;;;5050412;28;20039;-66
2023/12/07 09:42:50;;;;;;;1.63;0.90;;;;;;;;;;5049902;28;20128;-67
2023/12/07 09:45:18;;;;;;;1.63;0.70;;;;;;;;;;5050506;28;20127;-66
2023/12/07 09:47:50;;;;;;;3.67;1.13;;;;;;;;;;5048312;28;20439;-66
2023/12/07 09:50:17;;;;;;;11.02;1.08;;;;;;;;;;5056039;28;20136;-66
2023/12/07 09:52:43;;;;;;;9.30;1.50;;;;;;;;;;5044867;28;20064;-66
2023/12/07 09:55:09;;;;;;;0.80;0.60;;;;;;;;;;5051306;28;20068;-67
2023/12/07 09:57:36;;;;;;;4.30;1.67;;;;;;;;;;5039176;28;20086;-66
2023/12/07 10:00:02;;;;;;;4.13;0.93;;;;;;;;;;5051373;28;20033;-66
2023/12/07 10:02:28;;;;;;;3.47;1.00;;;;;;;;;;5050848;28;20032;-66
2023/12/07 10:05:10;;;;;;;3.80;1.35;;;;;;;;;;5050758;28;20040;-66
2023/12/07 10:07:41;;;;;;;4.55;1.38;;;;;;;;;;5050751;28;20485;-66
2023/12/07 10:10:07;;;;;;;5.10;1.00;;;;;;;;;;5051102;28;20041;-66
2023/12/07 10:12:34;;;;;;;4.53;1.13;;;;;;;;;;5048868;28;20455;-66
2023/12/07 10:15:02;;;;;;;3.33;1.08;;;;;;;;;;5042177;28;20037;-67
2023/12/07 10:17:48;;;;;;;3.50;0.98;;;;;;;;;;5048179;28;20538;-66
2023/12/07 10:20:15;;;;;;;3.63;1.13;;;;;;;;;;5049159;28;20048;-66
2023/12/07 10:22:41;;;;;;;5.65;1.85;;;;;;;;;;5030062;28;20033;-66
2023/12/07 10:25:07;;;;;;;7.50;1.52;;;;;;;;;;5044953;28;20047;-67
2023/12/07 10:27:32;;;;;;;4.78;1.48;;;;;;;;;;5045790;28;20044;-67
2023/12/07 10:30:01;;;;;;;2.95;1.00;;;;;;;;;;5047534;28;20041;-67
2023/12/07 10:32:26;;;;;;;2.83;1.08;;;;;;;;;;5044573;28;20099;-66
2023/12/07 10:34:52;;;;;;;11.38;1.67;;;;;;;;;;5042872;28;20036;-67
2023/12/07 10:37:18;;;;;;;4.57;0.98;;;;;;;;;;5045705;28;20048;-67
2023/12/07 10:39:43;;;;;;;1.48;0.75;;;;;;;;;;5046987;28;20033;-66
2023/12/07 10:42:11;;;;;;;3.00;1.10;;;;;;;;;;5045876;28;20449;-67
2023/12/07 10:44:41;;;;;;;3.92;1.40;;;;;;;;;;5047000;28;20065;-68
2023/12/07 10:47:10;;;;;;;4.68;1.67;;;;;;;;;;5045744;28;20106;-67
2023/12/07 10:49:36;;;;;;;6.35;1.15;;;;;;;;;;5047616;28;20029;-67
2023/12/07 10:52:05;;;;;;;8.85;1.95;;;;;;;;;;5045143;28;20385;-66
2023/12/07 10:54:45;;;;;;;5.10;1.52;;;;;;;;;;5045054;28;20049;-67
2023/12/07 10:57:13;;;;;;;5.65;1.63;;;;;;;;;;5046336;28;20036;-68
2023/12/07 10:59:39;;;;;;;4.25;1.10;;;;;;;;;;5034181;28;20048;-66
2023/12/07 11:02:06;;;;;;;8.60;2.22;;;;;;;;;;5031343;28;20475;-67
2023/12/07 11:04:31;;;;;;;6.35;1.38;;;;;;;;;;5044312;28;20035;-67
2023/12/07 11:07:00;;;;;;;4.22;1.98;;;;;;;;;;5044403;28;20040;-67
2023/12/07 11:09:28;;;;;;;9.35;2.03;;;;;;;;;;5036821;28;20041;-67
2023/12/07 11:11:59;;;;;;;4.03;1.17;;;;;;;;;;5038023;28;20403;-67
2023/12/07 11:14:24;;;;;;;3.40;1.30;;;;;;;;;;5044422;28;20467;-67
2023/12/07 11:16:52;;;;;;;10.43;1.83;;;;;;;;;;5045416;28;20044;-66
2023/12/07 11:19:32;;;;;;;4.78;1.40;;;;;;;;;;5039967;28;20120;-67
2023/12/07 11:21:57;;;;;;;5.32;1.67;;;;;;;;;;5045586;28;20511;-67
2023/12/07 11:24:23;;;;;;;4.43;1.25;;;;;;;;;;5045473;28;20049;-67
2023/12/07 11:26:51;;;;;;;7.10;1.60;;;;;;;;;;5044931;28;20040;-67
2023/12/07 11:29:20;;;;;;;7.95;1.25;;;;;;;;;;5046082;28;20033;-67
2023/12/07 11:31:45;;;;;;;15.23;1.70;;;;;;;;;;5045152;28;20045;-68
2023/12/07 11:34:13;;;;;;;4.78;1.10;;;;;;;;;;5045803;28;20049;-66
2023/12/07 11:36:39;;;;;;;5.82;1.52;;;;;;;;;;5045962;28;20093;-68
2023/12/07 11:39:08;;;;;;;5.25;1.17;;;;;;;;;;5040470;28;20052;-66
2023/12/07 11:41:35;;;;;;;4.00;1.33;;;;;;;;;;5036898;28;20037;-66
2023/12/07 11:44:00;;;;;;;1.52;1.13;;;;;;;;;;5046446;28;20032;-67
2023/12/07 11:46:25;;;;;;;13.70;1.65;;;;;;;;;;5048218;28;20033;-67
2023/12/07 11:48:51;;;;;;;5.10;1.05;;;;;;;;;;5049225;28;20040;-66
2023/12/07 11:51:17;;;;;;;3.20;1.02;;;;;;;;;;5046563;28;20048;-66
2023/12/07 11:53:43;;;;;;;5.78;1.33;;;;;;;;;;5049086;28;20033;-67
2023/12/07 11:56:10;;;;;;;5.18;1.35;;;;;;;;;;5049211;28;20214;-67
2023/12/07 11:58:36;;;;;;;3.42;1.08;;;;;;;;;;5048743;28;20033;-66
2023/12/07 12:01:02;;;;;;;3.53;1.20;;;;;;;;;;5049073;28;20115;-67
2023/12/07 12:03:29;;;;;;;6.95;1.35;;;;;;;;;;5048956;28;20069;-67
2023/12/07 12:05:55;;;;;;;6.03;1.27;;;;;;;;;;5047193;28;20396;-67
2023/12/07 12:08:21;;;;;;;7.13;1.63;;;;;;;;;;5030231;28;20095;-66
2023/12/07 12:10:48;;;;;;;3.38;1.00;;;;;;;;;;5049123;28;20484;-67
2023/12/07 12:13:14;;;;;;;2.83;0.77;;;;;;;;;;5050690;28;20098;-67
2023/12/07 12:15:39;;;;;;;5.38;1.30;;;;;;;;;;5048293;28;20436;-66
2023/12/07 12:18:06;;;;;;;10.02;2.10;;;;;;;;;;5048183;28;20068;-67
2023/12/07 12:20:32;;;;;;;2.22;0.88;;;;;;;;;;5043986;28;20112;-66
2023/12/07 12:22:58;;;;;;;4.20;1.10;;;;;;;;;;5046359;28;20037;-66
2023/12/07 12:25:31;;;;;;;2.42;0.90;;;;;;;;;;5048928;28;20086;-66
2023/12/07 12:27:58;;;;;;;2.95;1.10;;;;;;;;;;5048275;28;20035;-67
2023/12/07 12:30:23;;;;;;;4.60;1.05;;;;;;;;;;5047586;28;20057;-67
2023/12/07 12:32:50;;;;;;;1.20;0.65;;;;;;;;;;5044649;28;20035;-67
2023/12/07 12:35:16;;;;;;;5.10;1.50;;;;;;;;;;5048637;28;20031;-67
2023/12/07 12:37:43;;;;;;;2.08;0.90;;;;;;;;;;5047259;28;20033;-67
2023/12/07 12:40:10;;;;;;;2.90;1.20;;;;;;;;;;5045328;28;20428;-66
2023/12/07 12:42:37;;;;;;;5.60;1.88;;;;;;;;;;5047968;28;20041;-67
2023/12/07 12:45:04;;;;;;;6.70;1.08;;;;;;;;;;5046893;28;20431;-67
2023/12/07 12:47:29;;;;;;;8.68;1.10;;;;;;;;;;5047794;28;20055;-66
2023/12/07 12:49:54;;;;;;;2.13;0.90;;;;;;;;;;5047913;28;20033;-68
2023/12/07 12:52:20;;;;;;;3.83;1.27;;;;;;;;;;5045628;28;20045;-66
2023/12/07 12:54:46;;;;;;;0.95;0.63;;;;;;;;;;5047016;28;20032;-67
2023/12/07 12:57:12;;;;;;;1.85;0.85;;;;;;;;;;5046952;28;20040;-67
2023/12/07 12:59:37;;;;;;;3.35;1.10;;;;;;;;;;5047947;28;20041;-66
2023/12/07 13:02:05;;;;;;;4.80;1.40;;;;;;;;;;5046537;28;20385;-67
2023/12/07 13:04:31;;;;;;;4.30;0.70;;;;;;;;;;5048399;28;20033;-67
2023/12/07 13:06:56;;;;;;;1.38;0.85;;;;;;;;;;5046503;28;20052;-67
2023/12/07 13:09:22;;;;;;;3.42;0.80;;;;;;;;;;5042629;28;20041;-67
2023/12/07 13:11:47;;;;;;;3.47;1.00;;;;;;;;;;5047412;28;20495;-67
2023/12/07 13:14:13;;;;;;;7.80;2.03;;;;;;;;;;5046084;28;20037;-67
2023/12/07 13:16:38;;;;;;;4.35;1.20;;;;;;;;;;5048516;28;20072;-66
2023/12/07 13:19:04;;;;;;;3.38;1.40;;;;;;;;;;5047333;28;20128;-66
2023/12/07 13:21:29;;;;;;;3.58;1.65;;;;;;;;;;5047003;28;20040;-66
2023/12/07 13:23:54;;;;;;;5.57;1.20;;;;;;;;;;5039666;28;20033;-66
2023/12/07 13:26:23;;;;;;;4.85;1.45;;;;;;;;;;5047116;28;20025;-66
2023/12/07 13:28:48;;;;;;;3.35;1.10;;;;;;;;;;5045003;28;20033;-67
2023/12/07 13:31:14;;;;;;;6.20;1.30;;;;;;;;;;5045908;28;20059;-67
2023/12/07 13:33:40;;;;;;;6.05;2.08;;;;;;;;;;5045632;28;20536;-67
2023/12/07 13:36:06;;;;;;;3.72;0.90;;;;;;;;;;5046548;28;20032;-67
2023/12/07 13:38:31;;;;;;;3.83;1.20;;;;;;;;;;5041160;28;20531;-68
2023/12/07 13:40:57;;;;;;;2.38;0.68;;;;;;;;;;5046165;28;20112;-66
2023/12/07 13:43:25;;;;;;;11.52;1.00;;;;;;;;;;5041001;28;20185;-66
2023/12/07 13:45:50;;;;;;;1.52;0.77;;;;;;;;;;5045777;28;20025;-67
2023/12/07 13:48:15;;;;;;;0.85;0.52;;;;;;;;;;5046232;28;20384;-67
2023/12/07 13:50:42;;;;;;;4.35;1.27;;;;;;;;;;5043550;28;20044;-67
2023/12/07 13:53:12;;;;;;;5.97;1.50;;;;;;;;;;5039841;28;20025;-67
2023/12/07 13:55:39;;;;;;;3.42;0.68;;;;;;;;;;5042830;28;20033;-67
2023/12/07 13:58:06;;;;;;;1.15;0.80;;;;;;;;;;5036680;28;20033;-67
2023/12/07 14:00:32;;;;;;;0.80;0.50;;;;;;;;;;5043171;28;20033;-67
2023/12/07 14:02:57;;;;;;;5.68;1.10;;;;;;;;;;5046750;28;20037;-67
2023/12/07 14:05:22;;;;;;;0.10;0.10;;;;;;;;;;5047942;28;20115;-67
2023/12/07 14:07:48;;;;;;;0.47;0.45;;;;;;;;;;5045840;28;20024;-67
2023/12/07 14:10:13;;;;;;;2.78;0.55;;;;;;;;;;5046309;28;20053;-67
2023/12/07 14:12:38;;;;;;;2.05;0.70;;;;;;;;;;5033817;28;20119;-67
2023/12/07 14:15:04;;;;;;;0.90;0.60;;;;;;;;;;5045587;28;20087;-66
2023/12/07 14:17:37;;;;;;;1.83;0.77;;;;;;;;;;5035600;28;20509;-67
2023/12/07 14:20:07;;;;;;;3.47;0.90;;;;;;;;;;5045909;28;20041;-66
2023/12/07 14:22:32;;;;;;;2.00;1.17;;;;;;;;;;5034076;28;20041;-67
2023/12/07 14:24:58;;;;;;;1.65;0.80;;;;;;;;;;5049681;28;20499;-66
2023/12/07 14:27:24;;;;;;;2.28;0.80;;;;;;;;;;5045610;28;20040;-67
2023/12/07 14:29:49;;;;;;;1.17;0.60;;;;;;;;;;5046318;28;20449;-67
2023/12/07 14:32:14;;;;;;;5.70;0.80;;;;;;;;;;5034867;28;20057;-67
2023/12/07 14:34:40;;;;;;;2.40;0.80;;;;;;;;;;5042322;28;20592;-66
2023/12/07 14:37:08;;;;;;;3.25;0.88;;;;;;;;;;5039775;28;20856;-67